PWSweather.com
Personal Weather Stations
Station Observations
IMAZOWIE6
WarszawaPL

WarszawaPL

Lat: 52.27957, Lon: 21.05489

Elevation: 100

Station Type: WS1080

http://stacjapogody.waw.pl/

High Low Average
Temperature 60.6°F15.9°C 44.4°F6.9°C 52.9°F11.6°C
Dew Point -166.7°F-110.4°C -168.4°F-111.3°C -167.5°F-110.8°C
Winds 5.4 mph 8.7 kmh Calm Calm 1.0 mph N1.6 kmh N
Wind Gusts 11.6 mph18.7 kmh -- 4.0 mph6.4 kmh
Humidity - - -
Pressure 29.20 in988.8 mb 28.94 in980.0 mb -
Precipitation 0.00 in0.0 mm - -
Hour Temp Dew Point Humidity Winds Wind Gusts Pressure Precip Precip Rate Daily Precip Total
12:01 AM 48.4°F9.1°C -168.0°F-111.1°C - Calm Calm 1.4 mph2.3 kmh 29.20 in988.8 mb 0.00 in0.0 mm 0.00 in0.0 mm 0.00 in0.0 mm
12:16 AM 48.4°F9.1°C -168.0°F-111.1°C - 0.6 mph N1.0 kmh N 2.8 mph4.5 kmh 29.19 in988.5 mb 0.00 in0.0 mm 0.00 in0.0 mm 0.00 in0.0 mm
12:31 AM 48.0°F8.9°C -168.0°F-111.1°C - Calm Calm -- 29.18 in988.1 mb 0.00 in0.0 mm 0.00 in0.0 mm 0.00 in0.0 mm
12:46 AM 47.5°F8.6°C -168.1°F-111.2°C - Calm Calm 0.6 mph1.0 kmh 29.18 in988.1 mb 0.00 in0.0 mm 0.00 in0.0 mm 0.00 in0.0 mm
01:01 AM 47.1°F8.4°C -168.1°F-111.2°C - Calm Calm 2.8 mph4.5 kmh 29.18 in988.1 mb 0.00 in0.0 mm 0.00 in0.0 mm 0.00 in0.0 mm
01:16 AM 46.8°F8.2°C -168.1°F-111.2°C - Calm Calm 4.0 mph6.4 kmh 29.17 in987.8 mb 0.00 in0.0 mm 0.00 in0.0 mm 0.00 in0.0 mm
01:31 AM 46.9°F8.3°C -168.1°F-111.2°C - 0.6 mph N1.0 kmh N 4.0 mph6.4 kmh 29.17 in987.8 mb 0.00 in0.0 mm 0.00 in0.0 mm 0.00 in0.0 mm
01:46 AM 46.9°F8.3°C -168.1°F-111.2°C - Calm Calm 1.4 mph2.3 kmh 29.17 in987.8 mb 0.00 in0.0 mm 0.00 in0.0 mm 0.00 in0.0 mm
02:01 AM 46.4°F8.0°C -168.2°F-111.2°C - 0.6 mph N1.0 kmh N 3.4 mph5.5 kmh 29.17 in987.8 mb 0.00 in0.0 mm 0.00 in0.0 mm 0.00 in0.0 mm
02:16 AM 46.4°F8.0°C -168.2°F-111.2°C - Calm Calm 2.8 mph4.5 kmh 29.16 in987.5 mb 0.00 in0.0 mm 0.00 in0.0 mm 0.00 in0.0 mm
02:31 AM 46.2°F7.9°C -168.2°F-111.2°C - Calm Calm 2.0 mph3.2 kmh 29.15 in987.1 mb 0.00 in0.0 mm 0.00 in0.0 mm 0.00 in0.0 mm
02:46 AM 46.2°F7.9°C -168.2°F-111.2°C - Calm Calm 2.0 mph3.2 kmh 29.14 in986.8 mb 0.00 in0.0 mm 0.00 in0.0 mm 0.00 in0.0 mm
03:01 AM 46.2°F7.9°C -168.2°F-111.2°C - 1.4 mph N2.3 kmh N 4.0 mph6.4 kmh 29.14 in986.8 mb 0.00 in0.0 mm 0.00 in0.0 mm 0.00 in0.0 mm
03:16 AM 46.2°F7.9°C -168.2°F-111.2°C - 2.0 mph N3.2 kmh N 5.4 mph8.7 kmh 29.14 in986.8 mb 0.00 in0.0 mm 0.00 in0.0 mm 0.00 in0.0 mm
03:31 AM 46.0°F7.8°C -168.2°F-111.2°C - 0.6 mph N1.0 kmh N 2.8 mph4.5 kmh 29.13 in986.5 mb 0.00 in0.0 mm 0.00 in0.0 mm 0.00 in0.0 mm
03:46 AM 45.9°F7.7°C -168.2°F-111.2°C - 0.6 mph N1.0 kmh N 2.0 mph3.2 kmh 29.13 in986.5 mb 0.00 in0.0 mm 0.00 in0.0 mm 0.00 in0.0 mm
04:01 AM 45.7°F7.6°C -168.2°F-111.2°C - 1.4 mph N2.3 kmh N 4.0 mph6.4 kmh 29.13 in986.5 mb 0.00 in0.0 mm 0.00 in0.0 mm 0.00 in0.0 mm
04:16 AM 45.5°F7.5°C -168.3°F-111.3°C - 0.6 mph N1.0 kmh N 2.8 mph4.5 kmh 29.12 in986.1 mb 0.00 in0.0 mm 0.00 in0.0 mm 0.00 in0.0 mm
04:31 AM 44.6°F7.0°C -168.3°F-111.3°C - 1.4 mph N2.3 kmh N 4.0 mph6.4 kmh 29.11 in985.8 mb 0.00 in0.0 mm 0.00 in0.0 mm 0.00 in0.0 mm
04:46 AM 44.4°F6.9°C -168.4°F-111.3°C - 1.4 mph N2.3 kmh N 5.4 mph8.7 kmh 29.11 in985.8 mb 0.00 in0.0 mm 0.00 in0.0 mm 0.00 in0.0 mm
05:01 AM 44.4°F6.9°C -168.4°F-111.3°C - 1.4 mph N2.3 kmh N 4.8 mph7.7 kmh 29.10 in985.4 mb 0.00 in0.0 mm 0.00 in0.0 mm 0.00 in0.0 mm
05:16 AM 44.6°F7.0°C -168.3°F-111.3°C - 1.4 mph N2.3 kmh N 4.0 mph6.4 kmh 29.10 in985.4 mb 0.00 in0.0 mm 0.00 in0.0 mm 0.00 in0.0 mm
05:31 AM 45.0°F7.2°C -168.3°F-111.3°C - 2.8 mph N4.5 kmh N 4.8 mph7.7 kmh 29.10 in985.4 mb 0.00 in0.0 mm 0.00 in0.0 mm 0.00 in0.0 mm
05:46 AM 45.1°F7.3°C -168.3°F-111.3°C - 1.4 mph N2.3 kmh N 4.0 mph6.4 kmh 29.09 in985.1 mb 0.00 in0.0 mm 0.00 in0.0 mm 0.00 in0.0 mm
06:01 AM 45.3°F7.4°C -168.3°F-111.3°C - Calm Calm 0.6 mph1.0 kmh 29.08 in984.8 mb 0.00 in0.0 mm 0.00 in0.0 mm 0.00 in0.0 mm
06:16 AM 45.7°F7.6°C -168.2°F-111.2°C - 2.8 mph N4.5 kmh N 5.4 mph8.7 kmh 29.08 in984.8 mb 0.00 in0.0 mm 0.00 in0.0 mm 0.00 in0.0 mm
06:31 AM 46.0°F7.8°C -168.2°F-111.2°C - 1.4 mph N2.3 kmh N 3.4 mph5.5 kmh 29.08 in984.8 mb 0.00 in0.0 mm 0.00 in0.0 mm 0.00 in0.0 mm
06:46 AM 46.4°F8.0°C -168.2°F-111.2°C - Calm Calm 2.0 mph3.2 kmh 29.07 in984.4 mb 0.00 in0.0 mm 0.00 in0.0 mm 0.00 in0.0 mm
07:01 AM 46.9°F8.3°C -168.1°F-111.2°C - 1.4 mph N2.3 kmh N 3.4 mph5.5 kmh 29.07 in984.4 mb 0.00 in0.0 mm 0.00 in0.0 mm 0.00 in0.0 mm
07:16 AM 47.7°F8.7°C -168.0°F-111.1°C - 1.4 mph N2.3 kmh N 4.0 mph6.4 kmh 29.06 in984.1 mb 0.00 in0.0 mm 0.00 in0.0 mm 0.00 in0.0 mm
07:31 AM 48.0°F8.9°C -168.0°F-111.1°C - 1.4 mph N2.3 kmh N 4.8 mph7.7 kmh 29.06 in984.1 mb 0.00 in0.0 mm 0.00 in0.0 mm 0.00 in0.0 mm
07:46 AM 48.6°F9.2°C -167.9°F-111.1°C - 2.0 mph N3.2 kmh N 4.8 mph7.7 kmh 29.06 in984.1 mb 0.00 in0.0 mm 0.00 in0.0 mm 0.00 in0.0 mm
08:01 AM 49.3°F9.6°C -167.9°F-111.1°C - 2.0 mph N3.2 kmh N 7.4 mph11.9 kmh 29.05 in983.7 mb 0.00 in0.0 mm 0.00 in0.0 mm 0.00 in0.0 mm
08:16 AM 50.0°F10.0°C -167.8°F-111.0°C - 0.6 mph N1.0 kmh N 4.0 mph6.4 kmh 29.05 in983.7 mb 0.00 in0.0 mm 0.00 in0.0 mm 0.00 in0.0 mm
08:31 AM 50.5°F10.3°C -167.7°F-110.9°C - 1.4 mph N2.3 kmh N 6.2 mph10.0 kmh 29.04 in983.4 mb 0.00 in0.0 mm 0.00 in0.0 mm 0.00 in0.0 mm
08:46 AM 51.3°F10.7°C -167.7°F-110.9°C - 2.8 mph N4.5 kmh N 6.8 mph10.9 kmh 29.04 in983.4 mb 0.00 in0.0 mm 0.00 in0.0 mm 0.00 in0.0 mm
09:01 AM 52.0°F11.1°C -167.6°F-110.9°C - Calm Calm 0.6 mph1.0 kmh 29.04 in983.4 mb 0.00 in0.0 mm 0.00 in0.0 mm 0.00 in0.0 mm
09:16 AM 52.0°F11.1°C -167.6°F-110.9°C - Calm Calm 1.4 mph2.3 kmh 29.03 in983.1 mb 0.00 in0.0 mm 0.00 in0.0 mm 0.00 in0.0 mm
09:31 AM 52.7°F11.5°C -167.5°F-110.8°C - Calm Calm 2.8 mph4.5 kmh 29.03 in983.1 mb 0.00 in0.0 mm 0.00 in0.0 mm 0.00 in0.0 mm
09:46 AM 53.1°F11.7°C -167.5°F-110.8°C - 0.6 mph N1.0 kmh N 3.4 mph5.5 kmh 29.03 in983.1 mb 0.00 in0.0 mm 0.00 in0.0 mm 0.00 in0.0 mm
10:01 AM 53.8°F12.1°C -167.4°F-110.8°C - 1.4 mph N2.3 kmh N 4.8 mph7.7 kmh 29.02 in982.7 mb 0.00 in0.0 mm 0.00 in0.0 mm 0.00 in0.0 mm
10:16 AM 54.1°F12.3°C -167.4°F-110.8°C - 0.6 mph N1.0 kmh N 3.4 mph5.5 kmh 29.02 in982.7 mb 0.00 in0.0 mm 0.00 in0.0 mm 0.00 in0.0 mm
10:31 AM 54.5°F12.5°C -167.4°F-110.8°C - 0.6 mph N1.0 kmh N 3.4 mph5.5 kmh 29.01 in982.4 mb 0.00 in0.0 mm 0.00 in0.0 mm 0.00 in0.0 mm
10:46 AM 55.4°F13.0°C -167.3°F-110.7°C - 0.6 mph N1.0 kmh N 4.0 mph6.4 kmh 29.02 in982.7 mb 0.00 in0.0 mm 0.00 in0.0 mm 0.00 in0.0 mm
11:01 AM 56.3°F13.5°C -167.2°F-110.7°C - 1.4 mph N2.3 kmh N 5.4 mph8.7 kmh 29.01 in982.4 mb 0.00 in0.0 mm 0.00 in0.0 mm 0.00 in0.0 mm
11:16 AM 56.3°F13.5°C -167.2°F-110.7°C - Calm Calm 2.0 mph3.2 kmh 29.01 in982.4 mb 0.00 in0.0 mm 0.00 in0.0 mm 0.00 in0.0 mm
11:31 AM 56.3°F13.5°C -167.2°F-110.7°C - 2.0 mph N3.2 kmh N 6.8 mph10.9 kmh 29.01 in982.4 mb 0.00 in0.0 mm 0.00 in0.0 mm 0.00 in0.0 mm
11:46 AM 56.3°F13.5°C -167.2°F-110.7°C - Calm Calm 1.4 mph2.3 kmh 29.00 in982.1 mb 0.00 in0.0 mm 0.00 in0.0 mm 0.00 in0.0 mm
12:01 PM 56.5°F13.6°C -167.2°F-110.7°C - Calm Calm 0.6 mph1.0 kmh 29.00 in982.1 mb 0.00 in0.0 mm 0.00 in0.0 mm 0.00 in0.0 mm
12:16 PM 55.9°F13.3°C -167.2°F-110.7°C - 0.6 mph N1.0 kmh N 4.0 mph6.4 kmh 29.00 in982.1 mb 0.00 in0.0 mm 0.00 in0.0 mm 0.00 in0.0 mm
12:31 PM 55.9°F13.3°C -167.2°F-110.7°C - Calm Calm 0.6 mph1.0 kmh 28.99 in981.7 mb 0.00 in0.0 mm 0.00 in0.0 mm 0.00 in0.0 mm
12:46 PM 56.3°F13.5°C -167.2°F-110.7°C - Calm Calm -- 28.99 in981.7 mb 0.00 in0.0 mm 0.00 in0.0 mm 0.00 in0.0 mm
01:01 PM 57.2°F14.0°C -167.1°F-110.6°C - 1.4 mph N2.3 kmh N 4.0 mph6.4 kmh 28.98 in981.4 mb 0.00 in0.0 mm 0.00 in0.0 mm 0.00 in0.0 mm
01:16 PM 58.3°F14.6°C -167.0°F-110.6°C - 0.6 mph N1.0 kmh N 3.4 mph5.5 kmh 28.98 in981.4 mb 0.00 in0.0 mm 0.00 in0.0 mm 0.00 in0.0 mm
01:31 PM 58.8°F14.9°C -166.9°F-110.5°C - Calm Calm 0.6 mph1.0 kmh 28.98 in981.4 mb 0.00 in0.0 mm 0.00 in0.0 mm 0.00 in0.0 mm
01:46 PM 59.2°F15.1°C -166.9°F-110.5°C - Calm Calm 2.0 mph3.2 kmh 28.97 in981.0 mb 0.00 in0.0 mm 0.00 in0.0 mm 0.00 in0.0 mm
02:01 PM 59.0°F15.0°C -166.9°F-110.5°C - Calm Calm -- 28.97 in981.0 mb 0.00 in0.0 mm 0.00 in0.0 mm 0.00 in0.0 mm
02:16 PM 58.8°F14.9°C -166.9°F-110.5°C - 0.6 mph N1.0 kmh N 5.4 mph8.7 kmh 28.97 in981.0 mb 0.00 in0.0 mm 0.00 in0.0 mm 0.00 in0.0 mm
02:31 PM 58.8°F14.9°C -166.9°F-110.5°C - Calm Calm 2.0 mph3.2 kmh 28.96 in980.7 mb 0.00 in0.0 mm 0.00 in0.0 mm 0.00 in0.0 mm
02:46 PM 58.8°F14.9°C -166.9°F-110.5°C - 0.6 mph N1.0 kmh N 2.8 mph4.5 kmh 28.96 in980.7 mb 0.00 in0.0 mm 0.00 in0.0 mm 0.00 in0.0 mm
03:01 PM 58.8°F14.9°C -166.9°F-110.5°C - Calm Calm 2.0 mph3.2 kmh 28.95 in980.4 mb 0.00 in0.0 mm 0.00 in0.0 mm 0.00 in0.0 mm
03:16 PM 58.8°F14.9°C -166.9°F-110.5°C - Calm Calm -- 28.95 in980.4 mb 0.00 in0.0 mm 0.00 in0.0 mm 0.00 in0.0 mm
03:31 PM 59.5°F15.3°C -166.8°F-110.4°C - Calm Calm 2.8 mph4.5 kmh 28.95 in980.4 mb 0.00 in0.0 mm 0.00 in0.0 mm 0.00 in0.0 mm
03:46 PM 59.9°F15.5°C -166.8°F-110.4°C - 0.6 mph N1.0 kmh N 3.4 mph5.5 kmh 28.94 in980.0 mb 0.00 in0.0 mm 0.00 in0.0 mm 0.00 in0.0 mm
04:01 PM 60.6°F15.9°C -166.7°F-110.4°C - Calm Calm 2.0 mph3.2 kmh 28.94 in980.0 mb 0.00 in0.0 mm 0.00 in0.0 mm 0.00 in0.0 mm
04:16 PM 60.4°F15.8°C -166.8°F-110.4°C - 0.6 mph N1.0 kmh N 4.0 mph6.4 kmh 28.94 in980.0 mb 0.00 in0.0 mm 0.00 in0.0 mm 0.00 in0.0 mm
04:31 PM 60.4°F15.8°C -166.8°F-110.4°C - Calm Calm 1.4 mph2.3 kmh 28.94 in980.0 mb 0.00 in0.0 mm 0.00 in0.0 mm 0.00 in0.0 mm
04:46 PM 60.4°F15.8°C -166.8°F-110.4°C - Calm Calm 4.0 mph6.4 kmh 28.94 in980.0 mb 0.00 in0.0 mm 0.00 in0.0 mm 0.00 in0.0 mm
05:01 PM 60.1°F15.6°C -166.8°F-110.4°C - Calm Calm 2.8 mph4.5 kmh 28.94 in980.0 mb 0.00 in0.0 mm 0.00 in0.0 mm 0.00 in0.0 mm
05:16 PM 59.9°F15.5°C -166.8°F-110.4°C - Calm Calm 2.8 mph4.5 kmh 28.94 in980.0 mb 0.00 in0.0 mm 0.00 in0.0 mm 0.00 in0.0 mm
05:31 PM 59.7°F15.4°C -166.8°F-110.4°C - 0.6 mph N1.0 kmh N 3.4 mph5.5 kmh 28.94 in980.0 mb 0.00 in0.0 mm 0.00 in0.0 mm 0.00 in0.0 mm
05:46 PM 59.4°F15.2°C -166.9°F-110.5°C - Calm Calm -- 28.94 in980.0 mb 0.00 in0.0 mm 0.00 in0.0 mm 0.00 in0.0 mm
06:01 PM 59.4°F15.2°C -166.9°F-110.5°C - 1.4 mph N2.3 kmh N 4.8 mph7.7 kmh 28.94 in980.0 mb 0.00 in0.0 mm 0.00 in0.0 mm 0.00 in0.0 mm
06:16 PM 59.0°F15.0°C -166.9°F-110.5°C - 0.6 mph N1.0 kmh N 4.8 mph7.7 kmh 28.94 in980.0 mb 0.00 in0.0 mm 0.00 in0.0 mm 0.00 in0.0 mm
06:31 PM 58.6°F14.8°C -166.9°F-110.5°C - Calm Calm -- 28.94 in980.0 mb 0.00 in0.0 mm 0.00 in0.0 mm 0.00 in0.0 mm
06:46 PM 59.0°F15.0°C -166.9°F-110.5°C - Calm Calm -- 28.94 in980.0 mb 0.00 in0.0 mm 0.00 in0.0 mm 0.00 in0.0 mm
07:01 PM 58.3°F14.6°C -167.0°F-110.6°C - Calm Calm 3.4 mph5.5 kmh 28.94 in980.0 mb 0.00 in0.0 mm 0.00 in0.0 mm 0.00 in0.0 mm
07:16 PM 57.6°F14.2°C -167.0°F-110.6°C - 0.6 mph N1.0 kmh N 4.0 mph6.4 kmh 28.94 in980.0 mb 0.00 in0.0 mm 0.00 in0.0 mm 0.00 in0.0 mm
07:31 PM 57.0°F13.9°C -167.1°F-110.6°C - Calm Calm 1.4 mph2.3 kmh 28.94 in980.0 mb 0.00 in0.0 mm 0.00 in0.0 mm 0.00 in0.0 mm
07:46 PM 56.7°F13.7°C -167.1°F-110.6°C - Calm Calm 1.4 mph2.3 kmh 28.94 in980.0 mb 0.00 in0.0 mm 0.00 in0.0 mm 0.00 in0.0 mm
08:01 PM 56.7°F13.7°C -167.1°F-110.6°C - Calm Calm -- 28.94 in980.0 mb 0.00 in0.0 mm 0.00 in0.0 mm 0.00 in0.0 mm
08:16 PM 56.1°F13.4°C -167.2°F-110.7°C - Calm Calm 0.6 mph1.0 kmh 28.94 in980.0 mb 0.00 in0.0 mm 0.00 in0.0 mm 0.00 in0.0 mm
08:31 PM 55.2°F12.9°C -167.3°F-110.7°C - 3.4 mph N5.5 kmh N 9.6 mph15.4 kmh 28.95 in980.4 mb 0.00 in0.0 mm 0.00 in0.0 mm 0.00 in0.0 mm
08:46 PM 55.6°F13.1°C -167.2°F-110.7°C - 4.0 mph N6.4 kmh N 9.6 mph15.4 kmh 28.95 in980.4 mb 0.00 in0.0 mm 0.00 in0.0 mm 0.00 in0.0 mm
09:01 PM 56.5°F13.6°C -167.2°F-110.7°C - 4.8 mph N7.7 kmh N 9.6 mph15.4 kmh 28.95 in980.4 mb 0.00 in0.0 mm 0.00 in0.0 mm 0.00 in0.0 mm
09:16 PM 55.4°F13.0°C -167.3°F-110.7°C - 5.4 mph N8.7 kmh N 11.6 mph18.7 kmh 28.95 in980.4 mb 0.00 in0.0 mm 0.00 in0.0 mm 0.00 in0.0 mm
09:31 PM 54.9°F12.7°C -167.3°F-110.7°C - 5.4 mph N8.7 kmh N 7.4 mph11.9 kmh 28.95 in980.4 mb 0.00 in0.0 mm 0.00 in0.0 mm 0.00 in0.0 mm
09:46 PM 54.1°F12.3°C -167.4°F-110.8°C - 4.0 mph N6.4 kmh N 6.8 mph10.9 kmh 28.96 in980.7 mb 0.00 in0.0 mm 0.00 in0.0 mm 0.00 in0.0 mm
10:01 PM 53.6°F12.0°C -167.4°F-110.8°C - 2.0 mph N3.2 kmh N 4.8 mph7.7 kmh 28.96 in980.7 mb 0.00 in0.0 mm 0.00 in0.0 mm 0.00 in0.0 mm
10:16 PM 53.2°F11.8°C -167.5°F-110.8°C - 3.4 mph N5.5 kmh N 6.2 mph10.0 kmh 28.96 in980.7 mb 0.00 in0.0 mm 0.00 in0.0 mm 0.00 in0.0 mm
10:31 PM 52.9°F11.6°C -167.5°F-110.8°C - 1.4 mph N2.3 kmh N 4.8 mph7.7 kmh 28.97 in981.0 mb 0.00 in0.0 mm 0.00 in0.0 mm 0.00 in0.0 mm
10:46 PM 52.7°F11.5°C -167.5°F-110.8°C - 3.4 mph N5.5 kmh N 8.2 mph13.2 kmh 28.97 in981.0 mb 0.00 in0.0 mm 0.00 in0.0 mm 0.00 in0.0 mm
11:01 PM 52.3°F11.3°C -167.6°F-110.9°C - 3.4 mph N5.5 kmh N 6.2 mph10.0 kmh 28.97 in981.0 mb 0.00 in0.0 mm 0.00 in0.0 mm 0.00 in0.0 mm
11:16 PM 52.3°F11.3°C -167.6°F-110.9°C - 2.0 mph N3.2 kmh N 6.2 mph10.0 kmh 28.97 in981.0 mb 0.00 in0.0 mm 0.00 in0.0 mm 0.00 in0.0 mm
11:31 PM 52.0°F11.1°C -167.6°F-110.9°C - 1.4 mph N2.3 kmh N 5.4 mph8.7 kmh 28.97 in981.0 mb 0.00 in0.0 mm 0.00 in0.0 mm 0.00 in0.0 mm
11:46 PM 51.8°F11.0°C -167.6°F-110.9°C - 3.4 mph N5.5 kmh N 6.2 mph10.0 kmh 28.97 in981.0 mb 0.00 in0.0 mm 0.00 in0.0 mm 0.00 in0.0 mm